Time;durP1;ratioP1;P1;durP2;ratioP2;P2;SDS_P1;SDS_P2;PMS_P1;PMS_P2;Temp;Humidity;BMP_temperature;BMP_pressure;BME280_temperature;BME280_humidity;BME280_pressure;Samples;Min_cycle;Max_cycle;Signal;HPM_P1;HPM_P2
2023/12/05 00:00:01;;;;;;;21.77;10.27;;;;;;;;;;6196798;23;20016;-83
2023/12/05 00:02:27;;;;;;;15.00;9.10;;;;;;;;;;6197758;23;20047;-83
2023/12/05 00:04:56;;;;;;;18.83;11.43;;;;;;;;;;6197704;23;20043;-83
2023/12/05 00:07:23;;;;;;;17.52;10.52;;;;;;;;;;6222181;23;20447;-83
2023/12/05 00:09:49;;;;;;;19.20;11.02;;;;;;;;;;6197080;23;20051;-83
2023/12/05 00:12:16;;;;;;;18.70;11.30;;;;;;;;;;6197265;23;20079;-83
2023/12/05 00:14:42;;;;;;;17.48;10.07;;;;;;;;;;6196188;23;20039;-83
2023/12/05 00:17:11;;;;;;;22.33;12.23;;;;;;;;;;6197940;23;20429;-83
2023/12/05 00:19:40;;;;;;;17.92;11.00;;;;;;;;;;6197503;23;20016;-82
2023/12/05 00:22:06;;;;;;;20.75;11.05;;;;;;;;;;6198275;23;20027;-83
2023/12/05 00:24:32;;;;;;;20.00;12.23;;;;;;;;;;6198273;23;20090;-83
2023/12/05 00:26:58;;;;;;;19.50;11.00;;;;;;;;;;6197868;23;20074;-83
2023/12/05 00:29:26;;;;;;;14.18;8.60;;;;;;;;;;6197017;23;20020;-83
2023/12/05 00:31:55;;;;;;;19.27;10.82;;;;;;;;;;6197360;23;20012;-82
2023/12/05 00:34:21;;;;;;;20.30;11.40;;;;;;;;;;6198232;23;20362;-83
2023/12/05 00:36:48;;;;;;;18.48;11.18;;;;;;;;;;6197887;23;20068;-83
2023/12/05 00:39:14;;;;;;;18.33;11.20;;;;;;;;;;6198187;23;20024;-83
2023/12/05 00:41:40;;;;;;;17.23;10.95;;;;;;;;;;6198688;23;20055;-83
2023/12/05 00:44:09;;;;;;;22.73;12.60;;;;;;;;;;6197559;23;20068;-83
2023/12/05 00:46:35;;;;;;;20.38;11.27;;;;;;;;;;6197454;23;20046;-83
2023/12/05 00:49:01;;;;;;;18.00;12.30;;;;;;;;;;6198222;23;20441;-83
2023/12/05 00:51:30;;;;;;;16.95;10.48;;;;;;;;;;6199094;23;20039;-83
2023/12/05 00:53:57;;;;;;;19.17;11.30;;;;;;;;;;6223825;23;20068;-83
2023/12/05 00:56:25;;;;;;;21.85;12.10;;;;;;;;;;6198741;23;20020;-82
2023/12/05 00:58:52;;;;;;;21.85;11.98;;;;;;;;;;6198339;23;20535;-83
2023/12/05 01:01:21;;;;;;;19.92;11.00;;;;;;;;;;6198279;23;20016;-83
2023/12/05 01:03:47;;;;;;;22.20;10.70;;;;;;;;;;6197332;23;20050;-83
2023/12/05 01:06:13;;;;;;;19.40;10.90;;;;;;;;;;6199136;23;20012;-83
2023/12/05 01:08:39;;;;;;;20.52;11.02;;;;;;;;;;6199125;23;20012;-83
2023/12/05 01:11:05;;;;;;;19.35;11.27;;;;;;;;;;6198774;23;20028;-83
2023/12/05 01:13:32;;;;;;;18.73;11.05;;;;;;;;;;6198194;23;20066;-82
2023/12/05 01:15:58;;;;;;;21.83;11.43;;;;;;;;;;6198086;23;20023;-83
2023/12/05 01:18:24;;;;;;;19.08;11.68;;;;;;;;;;6198607;23;20496;-83
2023/12/05 01:20:53;;;;;;;22.80;11.82;;;;;;;;;;6197892;23;20026;-83
2023/12/05 01:23:22;;;;;;;19.33;11.45;;;;;;;;;;6198438;23;20463;-83
2023/12/05 01:25:48;;;;;;;17.83;11.30;;;;;;;;;;6222836;23;20475;-83
2023/12/05 01:28:14;;;;;;;19.92;10.95;;;;;;;;;;6197946;23;20020;-83
2023/12/05 01:30:41;;;;;;;20.05;11.30;;;;;;;;;;6198829;23;20020;-83
2023/12/05 01:33:10;;;;;;;20.63;11.27;;;;;;;;;;6199114;23;20020;-83
2023/12/05 01:35:39;;;;;;;18.95;11.05;;;;;;;;;;6223679;23;20027;-83
2023/12/05 01:38:05;;;;;;;19.17;12.00;;;;;;;;;;6199093;23;20567;-82
2023/12/05 01:40:31;;;;;;;21.92;12.05;;;;;;;;;;6199107;23;20099;-83
2023/12/05 01:43:01;;;;;;;22.77;12.80;;;;;;;;;;6198400;23;20344;-83
2023/12/05 01:45:27;;;;;;;22.90;12.70;;;;;;;;;;6198716;23;20016;-82
2023/12/05 01:47:53;;;;;;;22.38;11.98;;;;;;;;;;6199887;23;20017;-82
2023/12/05 01:50:25;;;;;;;21.33;12.43;;;;;;;;;;6198441;23;20016;-83
2023/12/05 01:52:55;;;;;;;19.60;11.65;;;;;;;;;;6199044;23;20024;-83
2023/12/05 01:55:22;;;;;;;22.60;13.75;;;;;;;;;;6198517;23;20019;-83
2023/12/05 01:57:48;;;;;;;20.10;11.80;;;;;;;;;;6198391;23;20461;-83
2023/12/05 02:00:17;;;;;;;23.30;14.00;;;;;;;;;;6198977;23;20016;-83
2023/12/05 02:02:43;;;;;;;23.52;14.25;;;;;;;;;;6198445;23;20506;-83
2023/12/05 02:05:10;;;;;;;20.90;12.35;;;;;;;;;;6199331;23;20028;-83
2023/12/05 02:07:36;;;;;;;23.95;13.35;;;;;;;;;;6199371;23;20428;-83
2023/12/05 02:10:07;;;;;;;20.70;12.40;;;;;;;;;;6199260;23;20352;-83
2023/12/05 02:12:33;;;;;;;23.65;13.40;;;;;;;;;;6198880;23;20348;-83
2023/12/05 02:15:03;;;;;;;22.02;13.77;;;;;;;;;;6199005;23;20012;-83
2023/12/05 02:17:36;;;;;;;26.17;14.25;;;;;;;;;;6199616;23;20322;-83
2023/12/05 02:20:08;;;;;;;23.02;14.80;;;;;;;;;;6200158;23;20016;-82
2023/12/05 02:22:46;;;;;;;25.48;12.98;;;;;;;;;;6199369;23;20052;-82
2023/12/05 02:25:20;;;;;;;23.83;13.25;;;;;;;;;;6200379;23;20107;-82
2023/12/05 02:27:47;;;;;;;25.73;14.27;;;;;;;;;;6199733;23;20020;-83
2023/12/05 02:30:17;;;;;;;24.60;14.43;;;;;;;;;;6199373;23;20471;-82
2023/12/05 02:32:43;;;;;;;24.60;14.57;;;;;;;;;;6224250;23;20020;-83
2023/12/05 02:35:11;;;;;;;21.98;13.35;;;;;;;;;;6198759;23;20473;-83
2023/12/05 02:37:57;;;;;;;23.73;13.70;;;;;;;;;;6199772;23;20056;-83
2023/12/05 02:40:32;;;;;;;26.45;14.95;;;;;;;;;;6200369;23;20040;-83
2023/12/05 02:43:00;;;;;;;23.30;13.50;;;;;;;;;;6200979;23;20020;-82
2023/12/05 02:45:30;;;;;;;27.40;14.93;;;;;;;;;;6200767;23;20027;-82
2023/12/05 02:48:01;;;;;;;23.55;14.23;;;;;;;;;;6200736;23;20020;-82
2023/12/05 02:50:27;;;;;;;25.00;15.68;;;;;;;;;;6200886;23;20051;-82
2023/12/05 02:52:53;;;;;;;22.85;14.00;;;;;;;;;;6201010;23;20043;-83
2023/12/05 02:55:19;;;;;;;26.27;14.52;;;;;;;;;;6200538;23;20091;-83
2023/12/05 02:57:48;;;;;;;25.00;14.18;;;;;;;;;;6200498;23;20016;-82
2023/12/05 03:00:14;;;;;;;23.10;13.70;;;;;;;;;;6201442;23;20042;-82
2023/12/05 03:02:40;;;;;;;21.80;13.45;;;;;;;;;;6200787;23;20024;-83
2023/12/05 03:05:07;;;;;;;25.30;14.57;;;;;;;;;;6200971;23;20031;-83
2023/12/05 03:07:33;;;;;;;24.40;14.20;;;;;;;;;;6201054;23;20016;-83
2023/12/05 03:09:59;;;;;;;25.73;15.15;;;;;;;;;;6200670;23;20381;-83
2023/12/05 03:12:25;;;;;;;24.98;14.82;;;;;;;;;;6200914;23;20019;-82
2023/12/05 03:14:51;;;;;;;24.50;14.90;;;;;;;;;;6200328;23;20072;-83
2023/12/05 03:17:18;;;;;;;20.25;12.35;;;;;;;;;;6201960;23;20464;-83
2023/12/05 03:19:44;;;;;;;23.17;12.75;;;;;;;;;;6200367;23;20020;-82
2023/12/05 03:22:10;;;;;;;25.45;14.93;;;;;;;;;;6200615;23;20016;-82
2023/12/05 03:24:36;;;;;;;25.38;14.45;;;;;;;;;;6199680;23;20015;-82
2023/12/05 03:27:02;;;;;;;24.63;14.55;;;;;;;;;;6200919;23;20016;-83
2023/12/05 03:29:28;;;;;;;27.33;15.55;;;;;;;;;;6226076;23;20020;-82
2023/12/05 03:31:54;;;;;;;26.60;14.27;;;;;;;;;;6200483;23;20472;-82
2023/12/05 03:34:20;;;;;;;23.98;13.88;;;;;;;;;;6200856;23;20016;-82
2023/12/05 03:36:49;;;;;;;23.17;14.02;;;;;;;;;;6200272;23;20055;-83
2023/12/05 03:39:15;;;;;;;27.77;15.13;;;;;;;;;;6199821;23;20031;-83
2023/12/05 03:41:43;;;;;;;26.63;15.15;;;;;;;;;;6199919;23;20043;-82
2023/12/05 03:44:09;;;;;;;27.27;14.88;;;;;;;;;;6200020;23;20453;-82
2023/12/05 03:46:35;;;;;;;25.77;14.55;;;;;;;;;;6199970;23;20048;-82
2023/12/05 03:49:01;;;;;;;26.55;14.55;;;;;;;;;;6200640;23;20040;-82
2023/12/05 03:51:27;;;;;;;25.73;15.40;;;;;;;;;;6201078;23;20023;-83
2023/12/05 03:53:53;;;;;;;25.58;14.27;;;;;;;;;;6224505;23;20087;-83
2023/12/05 03:56:20;;;;;;;26.05;15.43;;;;;;;;;;6200872;23;20086;-83
2023/12/05 03:58:46;;;;;;;26.50;15.10;;;;;;;;;;6200475;23;20016;-82
2023/12/05 04:01:12;;;;;;;26.58;15.60;;;;;;;;;;6200569;23;20388;-83
2023/12/05 04:03:38;;;;;;;27.50;16.23;;;;;;;;;;6200267;23;20016;-83
2023/12/05 04:06:04;;;;;;;28.58;15.75;;;;;;;;;;6224980;23;20038;-83
2023/12/05 04:08:30;;;;;;;25.67;14.55;;;;;;;;;;6199485;23;20012;-82
2023/12/05 04:10:56;;;;;;;25.48;15.52;;;;;;;;;;6199543;23;20520;-82
2023/12/05 04:13:22;;;;;;;27.63;15.23;;;;;;;;;;6200080;23;20017;-83
2023/12/05 04:15:48;;;;;;;27.15;15.75;;;;;;;;;;6199242;23;20388;-83
2023/12/05 04:18:15;;;;;;;25.23;15.63;;;;;;;;;;6194065;23;20027;-82
2023/12/05 04:20:41;;;;;;;30.38;16.77;;;;;;;;;;6194694;23;20475;-83
2023/12/05 04:23:07;;;;;;;27.55;15.18;;;;;;;;;;6194267;23;20074;-82
2023/12/05 04:25:33;;;;;;;25.00;14.95;;;;;;;;;;6194718;23;20078;-82
2023/12/05 04:27:59;;;;;;;25.42;15.23;;;;;;;;;;6195262;23;20475;-82
2023/12/05 04:30:25;;;;;;;24.65;15.55;;;;;;;;;;6195352;23;20345;-82
2023/12/05 04:32:51;;;;;;;26.60;15.52;;;;;;;;;;6219568;23;20019;-82
2023/12/05 04:35:17;;;;;;;27.30;16.42;;;;;;;;;;6195791;23;20012;-82
2023/12/05 04:37:44;;;;;;;27.65;16.60;;;;;;;;;;6195766;23;20026;-83
2023/12/05 04:40:10;;;;;;;27.60;15.32;;;;;;;;;;6195478;23;20024;-82
2023/12/05 04:42:36;;;;;;;27.60;15.57;;;;;;;;;;6195709;23;20099;-82
2023/12/05 04:45:02;;;;;;;28.05;16.20;;;;;;;;;;6194145;23;20031;-83
2023/12/05 04:47:29;;;;;;;28.63;15.98;;;;;;;;;;6194188;23;20078;-82
2023/12/05 04:49:55;;;;;;;26.70;15.48;;;;;;;;;;6194417;23;20094;-83
2023/12/05 04:52:21;;;;;;;30.92;16.13;;;;;;;;;;6219827;23;20035;-83
2023/12/05 04:54:47;;;;;;;30.75;16.83;;;;;;;;;;6194865;23;20449;-83
2023/12/05 04:57:13;;;;;;;26.23;14.95;;;;;;;;;;6194854;23;20091;-83
2023/12/05 04:59:39;;;;;;;29.90;17.17;;;;;;;;;;6195206;23;20017;-83
2023/12/05 05:02:06;;;;;;;31.83;17.33;;;;;;;;;;6195284;23;20016;-83
2023/12/05 05:04:32;;;;;;;32.42;17.65;;;;;;;;;;6195989;23;20071;-83
2023/12/05 05:06:58;;;;;;;31.27;17.52;;;;;;;;;;6195571;23;20047;-83
2023/12/05 05:09:24;;;;;;;32.50;17.85;;;;;;;;;;6195758;23;20016;-83
2023/12/05 05:11:50;;;;;;;30.80;16.52;;;;;;;;;;6195914;23;20036;-83
2023/12/05 05:14:16;;;;;;;30.92;17.20;;;;;;;;;;6195304;23;20016;-83
2023/12/05 05:16:42;;;;;;;32.35;16.92;;;;;;;;;;6196223;23;20036;-83
2023/12/05 05:19:08;;;;;;;32.40;16.33;;;;;;;;;;6196482;23;20012;-83
2023/12/05 05:21:34;;;;;;;28.52;17.17;;;;;;;;;;6197316;23;20024;-83
2023/12/05 05:24:01;;;;;;;30.15;18.13;;;;;;;;;;6196934;23;20016;-83
2023/12/05 05:26:29;;;;;;;27.80;16.42;;;;;;;;;;6197237;23;20389;-83
2023/12/05 05:28:56;;;;;;;31.08;16.58;;;;;;;;;;6196897;23;20275;-83
2023/12/05 05:31:22;;;;;;;30.50;16.52;;;;;;;;;;6196652;23;20016;-83
2023/12/05 05:33:48;;;;;;;29.90;16.08;;;;;;;;;;6197655;23;20024;-83
2023/12/05 05:36:14;;;;;;;28.27;15.95;;;;;;;;;;6197522;23;20019;-83
2023/12/05 05:38:43;;;;;;;32.72;18.00;;;;;;;;;;6197543;23;20091;-83
2023/12/05 05:41:11;;;;;;;29.92;16.77;;;;;;;;;;6197950;23;20016;-83
2023/12/05 05:43:37;;;;;;;29.65;17.02;;;;;;;;;;6197730;23;20119;-83
2023/12/05 05:46:03;;;;;;;29.08;16.63;;;;;;;;;;6198405;23;20047;-83
2023/12/05 05:48:29;;;;;;;29.17;16.83;;;;;;;;;;6197466;23;20537;-83
2023/12/05 05:50:55;;;;;;;28.00;15.30;;;;;;;;;;6198948;23;20020;-83
2023/12/05 05:53:21;;;;;;;27.98;15.73;;;;;;;;;;6200429;23;20020;-83
2023/12/05 05:55:50;;;;;;;28.50;15.68;;;;;;;;;;6200149;23;20020;-83
2023/12/05 05:58:17;;;;;;;30.90;16.13;;;;;;;;;;6200094;23;20028;-83
2023/12/05 06:00:43;;;;;;;26.77;16.40;;;;;;;;;;6199717;23;20080;-83
2023/12/05 06:03:09;;;;;;;31.25;16.55;;;;;;;;;;6199176;23;20016;-83
2023/12/05 06:05:35;;;;;;;31.08;17.65;;;;;;;;;;6198738;23;20056;-83
2023/12/05 06:08:01;;;;;;;29.50;16.20;;;;;;;;;;6198808;23;20015;-83
2023/12/05 06:10:27;;;;;;;27.13;16.00;;;;;;;;;;6199346;23;20452;-83
2023/12/05 06:12:53;;;;;;;30.80;15.77;;;;;;;;;;6200533;23;20016;-83
2023/12/05 06:15:20;;;;;;;30.90;16.13;;;;;;;;;;6200073;23;20341;-83
2023/12/05 06:17:48;;;;;;;28.48;15.80;;;;;;;;;;6199665;23;20483;-83
2023/12/05 06:20:15;;;;;;;32.38;16.48;;;;;;;;;;6199815;23;20108;-82
2023/12/05 06:22:51;;;;;;;26.75;15.77;;;;;;;;;;6199279;23;20016;-83
2023/12/05 06:25:17;;;;;;;27.63;15.30;;;;;;;;;;6199492;23;20020;-83
2023/12/05 06:27:46;;;;;;;28.42;15.18;;;;;;;;;;6198306;23;20027;-83
2023/12/05 06:30:30;;;;;;;27.13;15.95;;;;;;;;;;6197854;23;20027;-84
2023/12/05 06:32:59;;;;;;;26.85;15.30;;;;;;;;;;6195623;23;20023;-84
2023/12/05 06:35:25;;;;;;;27.48;14.93;;;;;;;;;;6198030;23;20016;-84
2023/12/05 06:37:56;;;;;;;27.63;14.88;;;;;;;;;;6199059;23;20020;-84
2023/12/05 06:40:28;;;;;;;28.30;15.48;;;;;;;;;;6198511;23;20336;-84
2023/12/05 06:42:54;;;;;;;25.42;14.30;;;;;;;;;;6198379;23;20024;-83
2023/12/05 06:45:20;;;;;;;29.38;15.93;;;;;;;;;;6198814;23;20487;-84
2023/12/05 06:47:48;;;;;;;24.35;14.70;;;;;;;;;;6198118;23;20052;-83
2023/12/05 06:50:15;;;;;;;27.30;15.05;;;;;;;;;;6223219;23;20012;-83
2023/12/05 06:52:41;;;;;;;28.45;15.02;;;;;;;;;;6199359;23;20375;-84
2023/12/05 06:55:10;;;;;;;28.08;16.15;;;;;;;;;;6197440;23;20020;-84
2023/12/05 06:57:37;;;;;;;25.77;15.32;;;;;;;;;;6197773;23;20016;-84
2023/12/05 07:00:03;;;;;;;25.13;14.75;;;;;;;;;;6197715;23;20344;-84
2023/12/05 07:02:30;;;;;;;26.88;14.15;;;;;;;;;;6197216;23;20066;-84
2023/12/05 07:04:59;;;;;;;27.67;14.00;;;;;;;;;;6197945;23;20071;-84
2023/12/05 07:07:25;;;;;;;22.08;13.45;;;;;;;;;;6197461;23;20023;-83
2023/12/05 07:09:51;;;;;;;26.67;14.07;;;;;;;;;;6249655;23;20026;-83
2023/12/05 07:12:19;;;;;;;24.42;14.25;;;;;;;;;;6197272;23;20020;-85
2023/12/05 07:14:45;;;;;;;27.00;14.95;;;;;;;;;;6193861;23;20035;-84
2023/12/05 07:17:16;;;;;;;26.60;14.80;;;;;;;;;;6194555;23;20031;-84
2023/12/05 07:19:42;;;;;;;26.88;14.70;;;;;;;;;;6194385;23;20012;-84
2023/12/05 07:22:08;;;;;;;27.30;14.93;;;;;;;;;;6195803;23;20142;-84
2023/12/05 07:24:34;;;;;;;24.38;14.30;;;;;;;;;;6196319;23;20158;-83
2023/12/05 07:27:01;;;;;;;28.75;15.48;;;;;;;;;;6195791;23;20365;-84
2023/12/05 07:29:27;;;;;;;28.00;15.07;;;;;;;;;;6194083;23;20027;-84
2023/12/05 07:31:56;;;;;;;27.00;14.85;;;;;;;;;;6192203;23;20091;-84
2023/12/05 07:34:24;;;;;;;25.65;14.80;;;;;;;;;;6192232;23;20020;-84
2023/12/05 07:37:04;;;;;;;25.23;14.65;;;;;;;;;;6194026;23;20050;-84
2023/12/05 07:39:33;;;;;;;28.02;15.55;;;;;;;;;;6194848;23;20145;-83
2023/12/05 07:42:00;;;;;;;28.45;15.20;;;;;;;;;;6195352;23;20099;-84
2023/12/05 07:44:28;;;;;;;27.02;15.05;;;;;;;;;;6197179;23;20023;-84
2023/12/05 07:46:55;;;;;;;29.80;15.00;;;;;;;;;;6196638;23;20095;-83
2023/12/05 07:49:21;;;;;;;30.35;15.27;;;;;;;;;;6197075;23;20019;-83
2023/12/05 07:51:50;;;;;;;30.83;16.35;;;;;;;;;;6195502;23;20087;-84
2023/12/05 07:54:19;;;;;;;28.02;14.98;;;;;;;;;;6194947;23;20012;-85
2023/12/05 07:56:45;;;;;;;26.30;14.48;;;;;;;;;;6195587;23;20456;-84
2023/12/05 07:59:11;;;;;;;25.92;15.35;;;;;;;;;;6196683;23;20023;-84
2023/12/05 08:01:42;;;;;;;28.48;15.02;;;;;;;;;;6195080;23;20016;-84
2023/12/05 08:04:08;;;;;;;29.15;14.93;;;;;;;;;;6195544;23;20178;-84
2023/12/05 08:06:34;;;;;;;27.65;15.40;;;;;;;;;;6195338;23;20027;-84
2023/12/05 08:09:01;;;;;;;29.80;15.52;;;;;;;;;;6197554;23;20091;-84
2023/12/05 08:11:34;;;;;;;26.05;14.77;;;;;;;;;;6195706;23;20024;-83
2023/12/05 08:14:07;;;;;;;28.17;14.90;;;;;;;;;;6197187;23;20048;-84
2023/12/05 08:16:33;;;;;;;28.90;14.88;;;;;;;;;;6195523;23;20095;-83
2023/12/05 08:19:02;;;;;;;27.45;13.82;;;;;;;;;;6196733;23;20431;-83
2023/12/05 08:21:28;;;;;;;30.23;15.00;;;;;;;;;;6197345;23;20020;-83
2023/12/05 08:23:54;;;;;;;27.08;14.45;;;;;;;;;;6198031;23;20393;-83
2023/12/05 08:26:31;;;;;;;24.85;14.95;;;;;;;;;;6197915;23;20326;-82
2023/12/05 08:28:58;;;;;;;25.60;15.13;;;;;;;;;;6197962;23;20016;-82
2023/12/05 08:31:25;;;;;;;27.42;15.80;;;;;;;;;;6196683;23;20658;-83
2023/12/05 08:33:51;;;;;;;26.55;14.88;;;;;;;;;;6197732;23;20018;-82
2023/12/05 08:36:17;;;;;;;25.92;14.35;;;;;;;;;;6197874;23;20059;-83
2023/12/05 08:38:46;;;;;;;25.13;14.65;;;;;;;;;;6198197;23;20344;-82
2023/12/05 08:41:18;;;;;;;24.95;14.15;;;;;;;;;;6194248;23;20047;-85
2023/12/05 08:43:44;;;;;;;28.30;14.98;;;;;;;;;;6193967;23;20098;-84
2023/12/05 08:46:10;;;;;;;27.52;15.98;;;;;;;;;;6194671;23;20034;-84
2023/12/05 08:48:36;;;;;;;24.83;15.25;;;;;;;;;;6193599;23;20314;-84
2023/12/05 08:51:02;;;;;;;24.00;14.57;;;;;;;;;;6193966;23;20012;-85
2023/12/05 08:53:28;;;;;;;27.85;15.35;;;;;;;;;;6193500;23;20146;-84
2023/12/05 08:55:54;;;;;;;26.13;15.40;;;;;;;;;;6193481;23;20012;-85
2023/12/05 08:58:20;;;;;;;24.77;14.90;;;;;;;;;;6193639;23;20082;-85
2023/12/05 09:00:46;;;;;;;28.90;15.63;;;;;;;;;;6194068;23;20012;-85
2023/12/05 09:03:13;;;;;;;23.50;14.82;;;;;;;;;;6193522;23;20389;-84
2023/12/05 09:05:39;;;;;;;24.58;14.40;;;;;;;;;;6246568;23;20031;-84
2023/12/05 09:08:05;;;;;;;25.02;15.20;;;;;;;;;;6191703;23;20059;-84
2023/12/05 09:10:37;;;;;;;24.80;14.50;;;;;;;;;;6194323;23;20016;-83
2023/12/05 09:13:03;;;;;;;27.92;15.32;;;;;;;;;;6194562;23;20429;-83
2023/12/05 09:15:30;;;;;;;24.17;14.93;;;;;;;;;;6218131;23;20020;-83
2023/12/05 09:17:56;;;;;;;25.85;14.82;;;;;;;;;;6217816;23;20024;-83
2023/12/05 09:20:25;;;;;;;25.25;14.52;;;;;;;;;;6193690;23;20020;-83
2023/12/05 09:22:51;;;;;;;27.23;15.95;;;;;;;;;;6219625;23;20012;-83
2023/12/05 09:25:17;;;;;;;25.02;15.68;;;;;;;;;;6219463;23;20024;-83
2023/12/05 09:27:43;;;;;;;23.67;15.02;;;;;;;;;;6218269;23;20433;-83
2023/12/05 09:30:10;;;;;;;26.00;14.65;;;;;;;;;;6194161;23;20020;-83
2023/12/05 09:32:36;;;;;;;25.90;14.55;;;;;;;;;;6219246;23;20016;-83
2023/12/05 09:35:02;;;;;;;25.92;14.32;;;;;;;;;;6219238;23;20020;-83
2023/12/05 09:37:28;;;;;;;24.35;14.45;;;;;;;;;;6246632;23;20396;-83
2023/12/05 09:39:54;;;;;;;24.40;14.82;;;;;;;;;;6195050;23;20481;-83
2023/12/05 09:42:22;;;;;;;23.30;14.65;;;;;;;;;;6219637;23;20352;-83
2023/12/05 09:44:51;;;;;;;24.35;14.30;;;;;;;;;;6191761;23;20449;-86
2023/12/05 09:47:21;;;;;;;23.52;14.77;;;;;;;;;;6193167;23;20457;-84
2023/12/05 09:49:55;;;;;;;23.25;13.45;;;;;;;;;;6192792;23;20047;-85
2023/12/05 09:52:22;;;;;;;22.13;13.77;;;;;;;;;;6192369;23;20376;-85
2023/12/05 09:54:51;;;;;;;23.55;14.10;;;;;;;;;;6192454;23;20437;-84
2023/12/05 09:57:18;;;;;;;24.05;14.88;;;;;;;;;;6193288;23;20055;-83
2023/12/05 09:59:44;;;;;;;24.77;14.38;;;;;;;;;;6220664;23;20020;-84
2023/12/05 10:02:10;;;;;;;24.55;14.25;;;;;;;;;;6194566;23;20019;-84
2023/12/05 10:04:43;;;;;;;22.30;14.38;;;;;;;;;;6220951;23;20046;-84
2023/12/05 10:07:11;;;;;;;26.25;15.02;;;;;;;;;;6247379;23;20052;-84
2023/12/05 10:09:38;;;;;;;22.42;14.77;;;;;;;;;;6195820;23;20096;-84
2023/12/05 10:12:04;;;;;;;22.38;13.85;;;;;;;;;;6220402;23;20020;-84
2023/12/05 10:14:31;;;;;;;22.45;14.32;;;;;;;;;;6195215;23;20047;-84
2023/12/05 10:16:57;;;;;;;22.98;14.50;;;;;;;;;;6248917;23;20457;-83
2023/12/05 10:19:24;;;;;;;22.90;13.65;;;;;;;;;;6194459;23;20020;-84
2023/12/05 10:21:51;;;;;;;23.25;14.00;;;;;;;;;;6219303;23;20016;-83
2023/12/05 10:24:18;;;;;;;24.08;14.00;;;;;;;;;;6195328;23;20059;-84
2023/12/05 10:26:46;;;;;;;24.05;14.52;;;;;;;;;;6220677;23;20024;-83
2023/12/05 10:29:14;;;;;;;24.30;14.18;;;;;;;;;;6219590;23;20051;-87
2023/12/05 10:32:21;;;;;;;22.58;14.00;;;;;;;;;;6195097;23;20013;-87
2023/12/05 10:34:54;;;;;;;22.67;14.05;;;;;;;;;;6194392;23;20020;-87
2023/12/05 10:37:28;;;;;;;22.00;14.03;;;;;;;;;;6196317;23;20035;-86
2023/12/05 10:40:00;;;;;;;24.73;14.07;;;;;;;;;;6196738;23;20423;-87
2023/12/05 10:42:29;;;;;;;23.42;14.43;;;;;;;;;;6197739;23;20460;-88
2023/12/05 10:44:56;;;;;;;22.38;13.85;;;;;;;;;;6195826;23;20020;-83
2023/12/05 10:47:23;;;;;;;25.02;14.15;;;;;;;;;;6194584;23;20373;-83
2023/12/05 10:49:50;;;;;;;23.90;13.43;;;;;;;;;;6245618;23;20016;-82
2023/12/05 10:52:16;;;;;;;23.50;14.02;;;;;;;;;;6247069;23;20012;-83
2023/12/05 10:54:44;;;;;;;24.48;14.63;;;;;;;;;;6246947;23;20016;-83
2023/12/05 10:57:10;;;;;;;22.92;14.68;;;;;;;;;;6219899;23;20023;-84
2023/12/05 10:59:42;;;;;;;24.30;15.05;;;;;;;;;;6194650;23;20468;-83
2023/12/05 11:02:12;;;;;;;24.08;14.68;;;;;;;;;;6247755;23;20102;-84
2023/12/05 11:04:40;;;;;;;22.45;13.73;;;;;;;;;;6247576;23;20012;-83
2023/12/05 11:07:06;;;;;;;23.90;15.60;;;;;;;;;;6220554;23;20016;-83
2023/12/05 11:09:32;;;;;;;24.50;15.18;;;;;;;;;;6220889;23;20059;-82
2023/12/05 11:11:58;;;;;;;25.65;15.68;;;;;;;;;;6247465;23;20070;-83
2023/12/05 11:14:26;;;;;;;25.00;15.60;;;;;;;;;;6194905;23;20019;-84
2023/12/05 11:16:54;;;;;;;23.60;14.32;;;;;;;;;;6194931;23;20098;-84
2023/12/05 11:19:23;;;;;;;24.17;15.40;;;;;;;;;;6247319;23;20470;-84
2023/12/05 11:21:49;;;;;;;23.67;14.93;;;;;;;;;;6247814;23;20012;-84
2023/12/05 11:24:30;;;;;;;23.92;14.85;;;;;;;;;;6247849;23;20022;-83
2023/12/05 11:27:15;;;;;;;23.25;15.10;;;;;;;;;;6194998;23;20028;-84
2023/12/05 11:29:41;;;;;;;26.08;15.40;;;;;;;;;;6195440;23;20099;-84
2023/12/05 11:32:19;;;;;;;25.20;14.98;;;;;;;;;;6195814;23;20088;-83
2023/12/05 11:34:45;;;;;;;25.10;15.40;;;;;;;;;;6249143;23;20444;-84
2023/12/05 11:37:23;;;;;;;24.00;14.88;;;;;;;;;;6250781;23;20135;-83
2023/12/05 11:39:50;;;;;;;23.48;15.30;;;;;;;;;;6250063;23;20111;-84
2023/12/05 11:42:19;;;;;;;26.13;15.70;;;;;;;;;;6199625;23;20399;-83
2023/12/05 11:44:45;;;;;;;25.67;15.48;;;;;;;;;;6199087;23;20019;-83
2023/12/05 11:47:24;;;;;;;28.23;16.45;;;;;;;;;;6224906;23;20123;-84
2023/12/05 11:49:53;;;;;;;28.35;15.77;;;;;;;;;;6200352;23;20027;-84
2023/12/05 11:52:19;;;;;;;23.98;14.75;;;;;;;;;;6252908;23;20020;-83
2023/12/05 11:54:46;;;;;;;29.30;16.95;;;;;;;;;;6199813;23;20016;-84
2023/12/05 11:57:17;;;;;;;27.27;15.68;;;;;;;;;;6199216;23;20448;-84
2023/12/05 11:59:45;;;;;;;26.80;15.65;;;;;;;;;;6198505;23;20012;-84
2023/12/05 12:02:37;;;;;;;27.80;17.00;;;;;;;;;;6198658;23;20071;-84
2023/12/05 12:05:08;;;;;;;29.10;16.23;;;;;;;;;;6243428;23;20016;-84
2023/12/05 12:07:58;;;;;;;28.75;16.92;;;;;;;;;;6224506;23;20024;-84
2023/12/05 12:10:26;;;;;;;26.08;16.20;;;;;;;;;;6198324;23;20095;-84
2023/12/05 12:12:52;;;;;;;26.52;15.77;;;;;;;;;;6223992;23;20322;-84
2023/12/05 12:15:19;;;;;;;26.40;16.23;;;;;;;;;;6197566;23;20497;-84
2023/12/05 12:17:46;;;;;;;29.30;16.42;;;;;;;;;;6197123;23;20452;-84
2023/12/05 12:20:13;;;;;;;26.33;16.40;;;;;;;;;;6198444;23;20020;-84
2023/12/05 12:22:39;;;;;;;25.70;15.57;;;;;;;;;;6249600;23;20466;-84
2023/12/05 12:25:11;;;;;;;29.58;18.15;;;;;;;;;;6222679;23;20511;-84
2023/12/05 12:27:41;;;;;;;25.83;15.95;;;;;;;;;;6223612;23;20020;-84
2023/12/05 12:30:13;;;;;;;27.27;17.02;;;;;;;;;;6249936;23;20083;-84
2023/12/05 12:33:13;;;;;;;28.20;16.67;;;;;;;;;;6197205;23;20027;-84
2023/12/05 12:35:40;;;;;;;26.52;16.02;;;;;;;;;;6117410;23;20400;-85
2023/12/05 12:38:06;;;;;;;25.42;15.65;;;;;;;;;;6220343;23;20020;-85
2023/12/05 12:40:33;;;;;;;26.60;16.42;;;;;;;;;;6195292;23;20016;-85
2023/12/05 12:42:59;;;;;;;28.15;17.05;;;;;;;;;;6195598;23;20095;-85
2023/12/05 12:45:28;;;;;;;31.05;17.38;;;;;;;;;;6220524;23;20420;-85
2023/12/05 12:47:55;;;;;;;33.42;16.92;;;;;;;;;;6224101;23;20460;-84
2023/12/05 12:50:21;;;;;;;27.30;16.77;;;;;;;;;;6199229;23;20054;-84
2023/12/05 12:52:47;;;;;;;26.80;18.05;;;;;;;;;;6198926;23;20504;-84
2023/12/05 12:55:14;;;;;;;30.48;17.70;;;;;;;;;;6197343;23;20031;-84
2023/12/05 12:57:43;;;;;;;30.00;18.13;;;;;;;;;;6224011;23;20456;-84
2023/12/05 13:00:09;;;;;;;31.85;18.17;;;;;;;;;;6221457;23;20016;-84
2023/12/05 13:02:36;;;;;;;30.80;18.40;;;;;;;;;;6193663;23;20377;-84
2023/12/05 13:05:02;;;;;;;29.00;18.42;;;;;;;;;;6195190;23;20115;-84
2023/12/05 13:07:30;;;;;;;30.30;17.80;;;;;;;;;;6247273;23;20024;-84
2023/12/05 13:09:57;;;;;;;30.02;18.92;;;;;;;;;;6247662;23;20043;-84
2023/12/05 13:12:23;;;;;;;30.13;18.35;;;;;;;;;;6219817;23;20020;-84
2023/12/05 13:14:50;;;;;;;32.50;18.98;;;;;;;;;;6220510;23;20698;-84
2023/12/05 13:17:19;;;;;;;32.15;18.70;;;;;;;;;;6220140;23;20028;-84
2023/12/05 13:19:45;;;;;;;33.45;19.02;;;;;;;;;;6195679;23;20016;-84
2023/12/05 13:22:11;;;;;;;32.78;19.17;;;;;;;;;;6219466;23;20008;-84
2023/12/05 13:24:37;;;;;;;34.22;20.42;;;;;;;;;;6195508;23;20016;-84
2023/12/05 13:27:04;;;;;;;34.35;19.95;;;;;;;;;;6219781;23;20449;-84
2023/12/05 13:29:30;;;;;;;33.58;19.77;;;;;;;;;;6247971;23;20027;-84
2023/12/05 13:31:56;;;;;;;32.55;20.05;;;;;;;;;;6221042;23;20094;-84
2023/12/05 13:34:22;;;;;;;35.83;20.83;;;;;;;;;;6220560;23;20052;-83
2023/12/05 13:36:48;;;;;;;33.17;19.92;;;;;;;;;;6221018;23;20074;-84
2023/12/05 13:39:15;;;;;;;33.80;20.20;;;;;;;;;;6220340;23;20050;-84
2023/12/05 13:41:41;;;;;;;33.58;19.45;;;;;;;;;;6197087;23;20024;-84
2023/12/05 13:44:11;;;;;;;35.55;20.38;;;;;;;;;;6193243;23;20129;-84
2023/12/05 13:46:37;;;;;;;32.75;18.90;;;;;;;;;;6245785;23;20401;-83
2023/12/05 13:49:06;;;;;;;36.33;20.83;;;;;;;;;;6218135;23;20016;-83
2023/12/05 13:51:32;;;;;;;31.80;19.05;;;;;;;;;;6193761;23;20022;-84
2023/12/05 13:53:59;;;;;;;32.75;19.50;;;;;;;;;;6218637;23;20031;-84
2023/12/05 13:56:25;;;;;;;32.08;19.15;;;;;;;;;;6193586;23;20038;-84
2023/12/05 13:58:52;;;;;;;33.88;20.25;;;;;;;;;;6247218;23;20016;-84
2023/12/05 14:01:19;;;;;;;35.13;19.75;;;;;;;;;;6219745;23;20028;-84
2023/12/05 14:03:45;;;;;;;33.53;20.58;;;;;;;;;;6195081;23;20038;-83
2023/12/05 14:06:12;;;;;;;34.08;19.75;;;;;;;;;;6220596;23;20349;-84
2023/12/05 14:08:38;;;;;;;33.72;19.08;;;;;;;;;;6219723;23;20034;-83
2023/12/05 14:11:05;;;;;;;33.65;20.05;;;;;;;;;;6217777;23;20154;-83
2023/12/05 14:13:31;;;;;;;34.97;20.83;;;;;;;;;;6247010;23;20074;-84
2023/12/05 14:15:57;;;;;;;36.20;20.80;;;;;;;;;;6247903;23;20020;-83
2023/12/05 14:18:23;;;;;;;34.75;20.48;;;;;;;;;;6222461;23;20020;-83